sensor_id;sensor_type;location;lat;lon;timestamp;temperature;humidity
74792;SHT30;63319;46.046;17.802;2023-07-31T00:01:39;27.07;53.77
74792;SHT30;63319;46.046;17.802;2023-07-31T00:04:42;27.07;53.77
74792;SHT30;63319;46.046;17.802;2023-07-31T00:07:45;27.05;53.83
74792;SHT30;63319;46.046;17.802;2023-07-31T00:10:51;27.04;53.69
74792;SHT30;63319;46.046;17.802;2023-07-31T00:13:55;27.04;53.82
74792;SHT30;63319;46.046;17.802;2023-07-31T00:16:58;27.02;53.79
74792;SHT30;63319;46.046;17.802;2023-07-31T00:20:00;27.01;53.76
74792;SHT30;63319;46.046;17.802;2023-07-31T00:23:04;27.01;53.83
74792;SHT30;63319;46.046;17.802;2023-07-31T00:26:07;26.98;53.88
74792;SHT30;63319;46.046;17.802;2023-07-31T00:29:10;27.00;53.90
74792;SHT30;63319;46.046;17.802;2023-07-31T00:32:13;26.98;53.83
74792;SHT30;63319;46.046;17.802;2023-07-31T00:35:16;26.98;53.92
74792;SHT30;63319;46.046;17.802;2023-07-31T00:38:19;26.95;53.83
74792;SHT30;63319;46.046;17.802;2023-07-31T00:41:22;26.97;53.88
74792;SHT30;63319;46.046;17.802;2023-07-31T00:44:25;26.95;53.90
74792;SHT30;63319;46.046;17.802;2023-07-31T00:47:28;26.94;53.82
74792;SHT30;63319;46.046;17.802;2023-07-31T00:50:33;26.94;54.00
74792;SHT30;63319;46.046;17.802;2023-07-31T00:53:36;26.91;53.72
74792;SHT30;63319;46.046;17.802;2023-07-31T00:56:40;26.90;54.07
74792;SHT30;63319;46.046;17.802;2023-07-31T00:59:43;26.88;53.95
74792;SHT30;63319;46.046;17.802;2023-07-31T01:02:48;26.91;54.04
74792;SHT30;63319;46.046;17.802;2023-07-31T01:09:29;26.88;54.03
74792;SHT30;63319;46.046;17.802;2023-07-31T01:12:37;26.87;53.95
74792;SHT30;63319;46.046;17.802;2023-07-31T01:15:40;26.87;54.03
74792;SHT30;63319;46.046;17.802;2023-07-31T01:18:43;26.86;53.96
74792;SHT30;63319;46.046;17.802;2023-07-31T01:22:16;26.86;54.10
74792;SHT30;63319;46.046;17.802;2023-07-31T01:32:01;26.84;54.00
74792;SHT30;63319;46.046;17.802;2023-07-31T01:35:06;26.79;54.12
74792;SHT30;63319;46.046;17.802;2023-07-31T01:38:09;26.80;54.11
74792;SHT30;63319;46.046;17.802;2023-07-31T01:41:12;26.81;54.15
74792;SHT30;63319;46.046;17.802;2023-07-31T01:44:15;26.81;54.18
74792;SHT30;63319;46.046;17.802;2023-07-31T01:47:18;26.79;53.98
74792;SHT30;63319;46.046;17.802;2023-07-31T01:50:21;26.77;54.04
74792;SHT30;63319;46.046;17.802;2023-07-31T01:53:24;26.79;54.12
74792;SHT30;63319;46.046;17.802;2023-07-31T01:56:27;26.76;53.96
74792;SHT30;63319;46.046;17.802;2023-07-31T01:59:30;26.76;54.21
74792;SHT30;63319;46.046;17.802;2023-07-31T02:02:33;26.73;54.27
74792;SHT30;63319;46.046;17.802;2023-07-31T02:05:36;26.74;54.02
74792;SHT30;63319;46.046;17.802;2023-07-31T02:08:42;26.73;54.32
74792;SHT30;63319;46.046;17.802;2023-07-31T02:11:47;26.72;54.21
74792;SHT30;63319;46.046;17.802;2023-07-31T02:14:50;26.72;54.27
74792;SHT30;63319;46.046;17.802;2023-07-31T02:17:53;26.69;54.20
74792;SHT30;63319;46.046;17.802;2023-07-31T02:20:56;26.70;54.20
74792;SHT30;63319;46.046;17.802;2023-07-31T02:24:01;26.70;54.17
74792;SHT30;63319;46.046;17.802;2023-07-31T02:27:04;26.69;54.23
74792;SHT30;63319;46.046;17.802;2023-07-31T02:30:07;26.69;54.41
74792;SHT30;63319;46.046;17.802;2023-07-31T02:33:10;26.67;54.38
74792;SHT30;63319;46.046;17.802;2023-07-31T02:36:14;26.69;54.28
74792;SHT30;63319;46.046;17.802;2023-07-31T02:39:17;26.67;54.21
74792;SHT30;63319;46.046;17.802;2023-07-31T02:42:21;26.64;54.38
74792;SHT30;63319;46.046;17.802;2023-07-31T02:45:24;26.65;54.37
74792;SHT30;63319;46.046;17.802;2023-07-31T02:48:27;26.67;54.16
74792;SHT30;63319;46.046;17.802;2023-07-31T02:51:30;26.64;54.24
74792;SHT30;63319;46.046;17.802;2023-07-31T02:54:33;26.65;54.35
74792;SHT30;63319;46.046;17.802;2023-07-31T02:57:36;26.65;54.21
74792;SHT30;63319;46.046;17.802;2023-07-31T03:00:43;26.63;54.24
74792;SHT30;63319;46.046;17.802;2023-07-31T03:03:46;26.61;54.33
74792;SHT30;63319;46.046;17.802;2023-07-31T03:06:49;26.61;54.20
74792;SHT30;63319;46.046;17.802;2023-07-31T03:09:52;26.61;54.31
74792;SHT30;63319;46.046;17.802;2023-07-31T03:12:55;26.59;54.23
74792;SHT30;63319;46.046;17.802;2023-07-31T03:15:58;26.60;54.20
74792;SHT30;63319;46.046;17.802;2023-07-31T03:19:01;26.61;54.01
74792;SHT30;63319;46.046;17.802;2023-07-31T03:22:05;26.59;54.11
74792;SHT30;63319;46.046;17.802;2023-07-31T03:25:08;26.59;54.20
74792;SHT30;63319;46.046;17.802;2023-07-31T03:28:12;26.59;54.25
74792;SHT30;63319;46.046;17.802;2023-07-31T03:31:15;26.59;54.09
74792;SHT30;63319;46.046;17.802;2023-07-31T03:34:19;26.57;53.97
74792;SHT30;63319;46.046;17.802;2023-07-31T03:37:21;26.57;54.21
74792;SHT30;63319;46.046;17.802;2023-07-31T03:40:24;26.56;54.18
74792;SHT30;63319;46.046;17.802;2023-07-31T03:43:27;26.56;54.09
74792;SHT30;63319;46.046;17.802;2023-07-31T03:46:30;26.57;54.17
74792;SHT30;63319;46.046;17.802;2023-07-31T03:49:33;26.57;54.17
74792;SHT30;63319;46.046;17.802;2023-07-31T03:52:36;26.56;53.98
74792;SHT30;63319;46.046;17.802;2023-07-31T03:55:39;26.57;54.32
74792;SHT30;63319;46.046;17.802;2023-07-31T03:58:42;26.56;53.97
74792;SHT30;63319;46.046;17.802;2023-07-31T04:01:45;26.57;53.99
74792;SHT30;63319;46.046;17.802;2023-07-31T04:04:51;26.56;53.98
74792;SHT30;63319;46.046;17.802;2023-07-31T04:07:54;26.57;53.81
74792;SHT30;63319;46.046;17.802;2023-07-31T04:10:57;26.56;53.83
74792;SHT30;63319;46.046;17.802;2023-07-31T04:14:00;26.56;53.87
74792;SHT30;63319;46.046;17.802;2023-07-31T04:17:03;26.56;53.95
74792;SHT30;63319;46.046;17.802;2023-07-31T04:20:07;26.56;54.29
74792;SHT30;63319;46.046;17.802;2023-07-31T04:23:10;26.56;53.66
74792;SHT30;63319;46.046;17.802;2023-07-31T04:26:13;26.56;53.44
74792;SHT30;63319;46.046;17.802;2023-07-31T04:29:16;26.57;53.72
74792;SHT30;63319;46.046;17.802;2023-07-31T04:32:19;26.56;53.50
74792;SHT30;63319;46.046;17.802;2023-07-31T04:35:23;26.59;53.70
74792;SHT30;63319;46.046;17.802;2023-07-31T04:38:26;26.59;53.64
74792;SHT30;63319;46.046;17.802;2023-07-31T04:41:29;26.59;53.91
74792;SHT30;63319;46.046;17.802;2023-07-31T04:44:32;26.61;53.47
74792;SHT30;63319;46.046;17.802;2023-07-31T04:47:35;26.60;53.74
74792;SHT30;63319;46.046;17.802;2023-07-31T04:50:38;26.64;53.42
74792;SHT30;63319;46.046;17.802;2023-07-31T04:53:46;26.64;53.67
74792;SHT30;63319;46.046;17.802;2023-07-31T04:56:49;26.64;53.76
74792;SHT30;63319;46.046;17.802;2023-07-31T04:59:52;26.67;53.54
74792;SHT30;63319;46.046;17.802;2023-07-31T05:02:54;26.69;53.39
74792;SHT30;63319;46.046;17.802;2023-07-31T05:05:58;26.70;53.71
74792;SHT30;63319;46.046;17.802;2023-07-31T05:09:01;26.70;53.41
74792;SHT30;63319;46.046;17.802;2023-07-31T05:12:04;26.72;53.54
74792;SHT30;63319;46.046;17.802;2023-07-31T05:15:08;26.72;53.51
74792;SHT30;63319;46.046;17.802;2023-07-31T05:18:11;26.73;53.48
74792;SHT30;63319;46.046;17.802;2023-07-31T05:21:14;26.76;53.39
74792;SHT30;63319;46.046;17.802;2023-07-31T05:24:17;26.77;53.18
74792;SHT30;63319;46.046;17.802;2023-07-31T05:27:20;26.79;53.09
74792;SHT30;63319;46.046;17.802;2023-07-31T05:30:23;26.80;53.22
74792;SHT30;63319;46.046;17.802;2023-07-31T05:33:27;26.84;53.28
74792;SHT30;63319;46.046;17.802;2023-07-31T05:36:30;26.84;53.49
74792;SHT30;63319;46.046;17.802;2023-07-31T05:39:33;26.86;53.14
74792;SHT30;63319;46.046;17.802;2023-07-31T05:42:36;26.87;53.19
74792;SHT30;63319;46.046;17.802;2023-07-31T05:45:43;26.91;53.33
74792;SHT30;63319;46.046;17.802;2023-07-31T05:48:47;26.95;53.46
74792;SHT30;63319;46.046;17.802;2023-07-31T05:51:49;26.98;53.51
74792;SHT30;63319;46.046;17.802;2023-07-31T05:54:52;27.01;53.52
74792;SHT30;63319;46.046;17.802;2023-07-31T05:57:55;27.04;53.44
74792;SHT30;63319;46.046;17.802;2023-07-31T06:01:01;27.05;53.46
74792;SHT30;63319;46.046;17.802;2023-07-31T06:04:05;27.07;53.29
74792;SHT30;63319;46.046;17.802;2023-07-31T06:07:08;27.15;53.29
74792;SHT30;63319;46.046;17.802;2023-07-31T06:10:11;27.14;53.16
74792;SHT30;63319;46.046;17.802;2023-07-31T06:13:14;27.16;53.12
74792;SHT30;63319;46.046;17.802;2023-07-31T06:16:17;27.20;53.04
74792;SHT30;63319;46.046;17.802;2023-07-31T06:19:21;27.25;52.99
74792;SHT30;63319;46.046;17.802;2023-07-31T06:22:33;27.29;53.49
74792;SHT30;63319;46.046;17.802;2023-07-31T06:25:41;27.32;53.19
74792;SHT30;63319;46.046;17.802;2023-07-31T06:28:48;27.38;52.79
74792;SHT30;63319;46.046;17.802;2023-07-31T06:31:51;27.43;52.49
74792;SHT30;63319;46.046;17.802;2023-07-31T06:34:55;27.42;52.25
74792;SHT30;63319;46.046;17.802;2023-07-31T06:37:58;27.48;52.27
74792;SHT30;63319;46.046;17.802;2023-07-31T06:41:02;27.52;52.09
74792;SHT30;63319;46.046;17.802;2023-07-31T06:44:06;27.55;51.95
74792;SHT30;63319;46.046;17.802;2023-07-31T06:47:12;27.60;51.85
74792;SHT30;63319;46.046;17.802;2023-07-31T06:50:16;27.65;51.85
74792;SHT30;63319;46.046;17.802;2023-07-31T06:53:18;27.70;51.78
74792;SHT30;63319;46.046;17.802;2023-07-31T06:56:29;27.71;51.67
74792;SHT30;63319;46.046;17.802;2023-07-31T06:59:35;27.76;51.62
74792;SHT30;63319;46.046;17.802;2023-07-31T07:02:58;27.80;51.50
74792;SHT30;63319;46.046;17.802;2023-07-31T07:06:02;27.87;51.39
74792;SHT30;63319;46.046;17.802;2023-07-31T07:09:06;27.89;51.20
74792;SHT30;63319;46.046;17.802;2023-07-31T07:12:10;27.94;51.16
74792;SHT30;63319;46.046;17.802;2023-07-31T07:15:13;27.98;51.09
74792;SHT30;63319;46.046;17.802;2023-07-31T07:18:17;28.01;50.99
74792;SHT30;63319;46.046;17.802;2023-07-31T07:21:21;28.06;50.90
74792;SHT30;63319;46.046;17.802;2023-07-31T07:24:24;28.06;50.78
74792;SHT30;63319;46.046;17.802;2023-07-31T07:27:28;28.11;50.66
74792;SHT30;63319;46.046;17.802;2023-07-31T07:30:31;28.13;50.55
74792;SHT30;63319;46.046;17.802;2023-07-31T07:33:35;28.17;50.48
74792;SHT30;63319;46.046;17.802;2023-07-31T07:36:38;28.22;50.37
74792;SHT30;63319;46.046;17.802;2023-07-31T07:39:42;28.24;50.30
74792;SHT30;63319;46.046;17.802;2023-07-31T07:42:49;28.29;50.00
74792;SHT30;63319;46.046;17.802;2023-07-31T07:45:52;28.33;49.99
74792;SHT30;63319;46.046;17.802;2023-07-31T07:48:56;28.37;49.97
74792;SHT30;63319;46.046;17.802;2023-07-31T07:51:59;28.38;49.77
74792;SHT30;63319;46.046;17.802;2023-07-31T07:55:03;28.45;49.64
74792;SHT30;63319;46.046;17.802;2023-07-31T07:58:07;28.48;49.41
74792;SHT30;63319;46.046;17.802;2023-07-31T08:01:11;28.56;49.12
74792;SHT30;63319;46.046;17.802;2023-07-31T08:04:15;28.64;48.37
74792;SHT30;63319;46.046;17.802;2023-07-31T08:07:18;28.76;48.39
74792;SHT30;63319;46.046;17.802;2023-07-31T08:10:24;28.86;48.36
74792;SHT30;63319;46.046;17.802;2023-07-31T08:13:27;28.93;48.42
74792;SHT30;63319;46.046;17.802;2023-07-31T08:16:31;29.04;47.29
74792;SHT30;63319;46.046;17.802;2023-07-31T08:19:36;29.10;46.83
74792;SHT30;63319;46.046;17.802;2023-07-31T08:22:40;29.16;46.51
74792;SHT30;63319;46.046;17.802;2023-07-31T08:25:44;29.26;46.12
74792;SHT30;63319;46.046;17.802;2023-07-31T08:28:48;29.35;46.03
74792;SHT30;63319;46.046;17.802;2023-07-31T08:31:51;29.46;45.36
74792;SHT30;63319;46.046;17.802;2023-07-31T08:34:53;29.61;44.60
74792;SHT30;63319;46.046;17.802;2023-07-31T08:38:00;29.78;44.17
74792;SHT30;63319;46.046;17.802;2023-07-31T08:41:06;29.98;43.15
74792;SHT30;63319;46.046;17.802;2023-07-31T08:44:10;30.19;42.82
74792;SHT30;63319;46.046;17.802;2023-07-31T08:47:22;30.43;42.36
74792;SHT30;63319;46.046;17.802;2023-07-31T08:50:29;30.68;41.24
74792;SHT30;63319;46.046;17.802;2023-07-31T08:53:32;30.88;40.98
74792;SHT30;63319;46.046;17.802;2023-07-31T08:56:36;31.15;40.80
74792;SHT30;63319;46.046;17.802;2023-07-31T08:59:40;31.42;41.27
74792;SHT30;63319;46.046;17.802;2023-07-31T09:03:00;31.59;41.47
74792;SHT30;63319;46.046;17.802;2023-07-31T09:06:05;31.74;40.89
74792;SHT30;63319;46.046;17.802;2023-07-31T09:09:13;31.89;40.76
74792;SHT30;63319;46.046;17.802;2023-07-31T09:12:31;32.07;39.82
74792;SHT30;63319;46.046;17.802;2023-07-31T09:15:55;32.13;39.09
74792;SHT30;63319;46.046;17.802;2023-07-31T09:19:01;32.24;39.19
74792;SHT30;63319;46.046;17.802;2023-07-31T09:22:07;32.27;39.18
74792;SHT30;63319;46.046;17.802;2023-07-31T09:25:28;32.34;39.23
74792;SHT30;63319;46.046;17.802;2023-07-31T09:28:31;32.39;39.18
74792;SHT30;63319;46.046;17.802;2023-07-31T09:31:42;32.54;39.13
74792;SHT30;63319;46.046;17.802;2023-07-31T09:34:46;32.51;39.13
74792;SHT30;63319;46.046;17.802;2023-07-31T09:37:53;32.58;39.30
74792;SHT30;63319;46.046;17.802;2023-07-31T09:40:58;32.59;39.28
74792;SHT30;63319;46.046;17.802;2023-07-31T09:44:02;32.68;39.27
74792;SHT30;63319;46.046;17.802;2023-07-31T09:47:05;32.74;39.18
74792;SHT30;63319;46.046;17.802;2023-07-31T09:50:08;32.76;39.19
74792;SHT30;63319;46.046;17.802;2023-07-31T09:53:12;32.79;39.26
74792;SHT30;63319;46.046;17.802;2023-07-31T09:56:16;32.82;39.26
74792;SHT30;63319;46.046;17.802;2023-07-31T09:59:20;32.90;39.22
74792;SHT30;63319;46.046;17.802;2023-07-31T10:02:26;32.86;39.14
74792;SHT30;63319;46.046;17.802;2023-07-31T10:05:34;32.86;39.12
74792;SHT30;63319;46.046;17.802;2023-07-31T10:08:38;32.90;39.18
74792;SHT30;63319;46.046;17.802;2023-07-31T10:11:46;32.93;39.26
74792;SHT30;63319;46.046;17.802;2023-07-31T10:14:54;32.93;39.25
74792;SHT30;63319;46.046;17.802;2023-07-31T10:17:58;32.98;39.15
74792;SHT30;63319;46.046;17.802;2023-07-31T10:21:02;32.89;39.22
74792;SHT30;63319;46.046;17.802;2023-07-31T10:24:05;32.87;39.38
74792;SHT30;63319;46.046;17.802;2023-07-31T10:27:09;32.89;39.63
74792;SHT30;63319;46.046;17.802;2023-07-31T10:30:15;32.83;39.67
74792;SHT30;63319;46.046;17.802;2023-07-31T10:33:21;32.80;39.69
74792;SHT30;63319;46.046;17.802;2023-07-31T10:36:25;32.90;39.53
74792;SHT30;63319;46.046;17.802;2023-07-31T10:39:35;32.96;39.48
74792;SHT30;63319;46.046;17.802;2023-07-31T10:42:50;32.93;39.51
74792;SHT30;63319;46.046;17.802;2023-07-31T10:45:55;32.98;39.49
74792;SHT30;63319;46.046;17.802;2023-07-31T10:49:02;32.96;39.56
74792;SHT30;63319;46.046;17.802;2023-07-31T10:52:10;32.98;39.50
74792;SHT30;63319;46.046;17.802;2023-07-31T10:55:41;32.98;39.59
74792;SHT30;63319;46.046;17.802;2023-07-31T10:58:44;33.02;39.55
74792;SHT30;63319;46.046;17.802;2023-07-31T11:01:52;33.02;39.55
74792;SHT30;63319;46.046;17.802;2023-07-31T11:05:08;33.07;39.45
74792;SHT30;63319;46.046;17.802;2023-07-31T11:08:15;32.93;39.64
74792;SHT30;63319;46.046;17.802;2023-07-31T11:11:20;33.00;39.63
74792;SHT30;63319;46.046;17.802;2023-07-31T11:14:23;33.07;39.57
74792;SHT30;63319;46.046;17.802;2023-07-31T11:17:26;33.10;39.43
74792;SHT30;63319;46.046;17.802;2023-07-31T11:20:30;33.12;39.49
74792;SHT30;63319;46.046;17.802;2023-07-31T11:23:33;33.20;39.39
74792;SHT30;63319;46.046;17.802;2023-07-31T11:26:36;33.19;39.36
74792;SHT30;63319;46.046;17.802;2023-07-31T11:29:39;33.16;39.37
74792;SHT30;63319;46.046;17.802;2023-07-31T11:32:43;33.05;39.60
74792;SHT30;63319;46.046;17.802;2023-07-31T11:35:48;32.99;39.71
74792;SHT30;63319;46.046;17.802;2023-07-31T11:38:51;32.89;39.92
74792;SHT30;63319;46.046;17.802;2023-07-31T11:42:00;32.92;39.82
74792;SHT30;63319;46.046;17.802;2023-07-31T11:45:08;32.78;40.13
74792;SHT30;63319;46.046;17.802;2023-07-31T11:48:18;32.69;40.23
74792;SHT30;63319;46.046;17.802;2023-07-31T11:51:21;32.71;40.33
74792;SHT30;63319;46.046;17.802;2023-07-31T11:54:24;32.41;40.76
74792;SHT30;63319;46.046;17.802;2023-07-31T11:57:28;32.39;40.79
74792;SHT30;63319;46.046;17.802;2023-07-31T12:00:32;32.41;40.85
74792;SHT30;63319;46.046;17.802;2023-07-31T12:03:35;32.10;41.41
74792;SHT30;63319;46.046;17.802;2023-07-31T12:06:47;31.98;41.65
74792;SHT30;63319;46.046;17.802;2023-07-31T12:09:54;31.81;41.95
74792;SHT30;63319;46.046;17.802;2023-07-31T12:13:06;31.80;41.97
74792;SHT30;63319;46.046;17.802;2023-07-31T12:16:10;31.69;42.37
74792;SHT30;63319;46.046;17.802;2023-07-31T12:19:13;31.60;42.49
74792;SHT30;63319;46.046;17.802;2023-07-31T12:22:16;31.62;42.43
74792;SHT30;63319;46.046;17.802;2023-07-31T12:25:33;31.54;42.69
74792;SHT30;63319;46.046;17.802;2023-07-31T12:28:40;31.42;42.98
74792;SHT30;63319;46.046;17.802;2023-07-31T12:31:43;31.36;43.11
74792;SHT30;63319;46.046;17.802;2023-07-31T12:34:47;31.22;43.41
74792;SHT30;63319;46.046;17.802;2023-07-31T12:37:50;31.22;43.35
74792;SHT30;63319;46.046;17.802;2023-07-31T12:40:53;31.11;43.66
74792;SHT30;63319;46.046;17.802;2023-07-31T12:43:56;31.10;43.76
74792;SHT30;63319;46.046;17.802;2023-07-31T12:46:58;31.02;43.86
74792;SHT30;63319;46.046;17.802;2023-07-31T12:50:02;30.94;44.10
74792;SHT30;63319;46.046;17.802;2023-07-31T12:53:12;30.95;44.03
74792;SHT30;63319;46.046;17.802;2023-07-31T12:56:19;30.88;44.15
74792;SHT30;63319;46.046;17.802;2023-07-31T12:59:26;30.84;44.27
74792;SHT30;63319;46.046;17.802;2023-07-31T13:02:28;30.73;44.63
74792;SHT30;63319;46.046;17.802;2023-07-31T13:05:32;30.63;44.79
74792;SHT30;63319;46.046;17.802;2023-07-31T13:08:35;30.59;44.96
74792;SHT30;63319;46.046;17.802;2023-07-31T13:11:38;30.55;45.00
74792;SHT30;63319;46.046;17.802;2023-07-31T13:14:41;30.50;45.04
74792;SHT30;63319;46.046;17.802;2023-07-31T13:17:44;30.44;45.18
74792;SHT30;63319;46.046;17.802;2023-07-31T13:20:47;30.47;45.16
74792;SHT30;63319;46.046;17.802;2023-07-31T13:23:50;30.44;45.21
74792;SHT30;63319;46.046;17.802;2023-07-31T13:26:53;30.39;45.31
74792;SHT30;63319;46.046;17.802;2023-07-31T13:29:55;30.39;45.37
74792;SHT30;63319;46.046;17.802;2023-07-31T13:32:58;30.33;45.42
74792;SHT30;63319;46.046;17.802;2023-07-31T13:36:01;30.27;45.56
74792;SHT30;63319;46.046;17.802;2023-07-31T13:39:04;30.20;45.72
74792;SHT30;63319;46.046;17.802;2023-07-31T13:42:08;30.19;45.77
74792;SHT30;63319;46.046;17.802;2023-07-31T13:45:11;30.12;45.86
74792;SHT30;63319;46.046;17.802;2023-07-31T13:48:14;30.10;45.94
74792;SHT30;63319;46.046;17.802;2023-07-31T13:51:17;30.08;45.94
74792;SHT30;63319;46.046;17.802;2023-07-31T13:54:20;29.99;46.19
74792;SHT30;63319;46.046;17.802;2023-07-31T13:57:23;29.95;46.28
74792;SHT30;63319;46.046;17.802;2023-07-31T14:00:26;29.92;46.36
74792;SHT30;63319;46.046;17.802;2023-07-31T14:03:33;29.93;46.30
74792;SHT30;63319;46.046;17.802;2023-07-31T14:06:39;29.91;46.41
74792;SHT30;63319;46.046;17.802;2023-07-31T14:09:49;29.86;46.40
74792;SHT30;63319;46.046;17.802;2023-07-31T14:12:52;29.85;46.60
74792;SHT30;63319;46.046;17.802;2023-07-31T14:15:55;29.82;46.66
74792;SHT30;63319;46.046;17.802;2023-07-31T14:18:58;29.81;46.72
74792;SHT30;63319;46.046;17.802;2023-07-31T14:22:01;29.70;46.89
74792;SHT30;63319;46.046;17.802;2023-07-31T14:25:13;29.70;46.94
74792;SHT30;63319;46.046;17.802;2023-07-31T14:28:17;29.67;47.00
74792;SHT30;63319;46.046;17.802;2023-07-31T14:31:20;29.65;46.97
74792;SHT30;63319;46.046;17.802;2023-07-31T14:34:23;29.65;47.08
74792;SHT30;63319;46.046;17.802;2023-07-31T14:37:39;29.54;47.21
74792;SHT30;63319;46.046;17.802;2023-07-31T14:40:42;29.55;47.16
74792;SHT30;63319;46.046;17.802;2023-07-31T14:43:45;29.57;47.22
74792;SHT30;63319;46.046;17.802;2023-07-31T14:46:48;29.50;47.35
74792;SHT30;63319;46.046;17.802;2023-07-31T14:49:51;29.51;47.33
74792;SHT30;63319;46.046;17.802;2023-07-31T14:52:54;29.47;47.52
74792;SHT30;63319;46.046;17.802;2023-07-31T14:55:59;29.47;47.51
74792;SHT30;63319;46.046;17.802;2023-07-31T14:59:02;29.44;47.47
74792;SHT30;63319;46.046;17.802;2023-07-31T15:02:09;29.46;47.49
74792;SHT30;63319;46.046;17.802;2023-07-31T15:05:12;29.40;47.59
74792;SHT30;63319;46.046;17.802;2023-07-31T15:08:15;29.44;47.56
74792;SHT30;63319;46.046;17.802;2023-07-31T15:11:18;29.35;47.70
74792;SHT30;63319;46.046;17.802;2023-07-31T15:14:21;29.37;47.67
74792;SHT30;63319;46.046;17.802;2023-07-31T15:17:25;29.34;47.77
74792;SHT30;63319;46.046;17.802;2023-07-31T15:20:31;29.33;47.79
74792;SHT30;63319;46.046;17.802;2023-07-31T15:23:35;29.30;47.83
74792;SHT30;63319;46.046;17.802;2023-07-31T15:26:38;29.30;47.85
74792;SHT30;63319;46.046;17.802;2023-07-31T15:29:41;29.33;47.78
74792;SHT30;63319;46.046;17.802;2023-07-31T15:32:44;29.33;47.84
74792;SHT30;63319;46.046;17.802;2023-07-31T15:35:51;29.30;47.92
74792;SHT30;63319;46.046;17.802;2023-07-31T15:38:58;29.29;47.89
74792;SHT30;63319;46.046;17.802;2023-07-31T15:42:01;29.27;47.98
74792;SHT30;63319;46.046;17.802;2023-07-31T15:45:05;29.27;48.01
74792;SHT30;63319;46.046;17.802;2023-07-31T15:48:08;29.22;47.95
74792;SHT30;63319;46.046;17.802;2023-07-31T15:51:11;29.19;48.11
74792;SHT30;63319;46.046;17.802;2023-07-31T15:54:14;29.20;48.18
74792;SHT30;63319;46.046;17.802;2023-07-31T15:57:17;29.17;48.09
74792;SHT30;63319;46.046;17.802;2023-07-31T16:00:20;29.14;48.20
74792;SHT30;63319;46.046;17.802;2023-07-31T16:03:23;29.16;48.18
74792;SHT30;63319;46.046;17.802;2023-07-31T16:06:27;29.10;48.33
74792;SHT30;63319;46.046;17.802;2023-07-31T16:09:30;29.09;48.37
74792;SHT30;63319;46.046;17.802;2023-07-31T16:12:33;29.04;48.49
74792;SHT30;63319;46.046;17.802;2023-07-31T16:15:36;29.03;48.55
74792;SHT30;63319;46.046;17.802;2023-07-31T16:18:39;29.03;48.51
74792;SHT30;63319;46.046;17.802;2023-07-31T16:21:42;29.02;48.53
74792;SHT30;63319;46.046;17.802;2023-07-31T16:24:45;28.98;48.66
74792;SHT30;63319;46.046;17.802;2023-07-31T16:27:52;28.93;48.73
74792;SHT30;63319;46.046;17.802;2023-07-31T16:30:55;28.92;48.79
74792;SHT30;63319;46.046;17.802;2023-07-31T16:33:58;28.88;48.80
74792;SHT30;63319;46.046;17.802;2023-07-31T16:37:01;28.89;48.84
74792;SHT30;63319;46.046;17.802;2023-07-31T16:40:05;28.88;48.92
74792;SHT30;63319;46.046;17.802;2023-07-31T16:43:08;28.88;48.95
74792;SHT30;63319;46.046;17.802;2023-07-31T16:46:12;28.85;48.93
74792;SHT30;63319;46.046;17.802;2023-07-31T16:49:15;28.79;48.99
74792;SHT30;63319;46.046;17.802;2023-07-31T16:52:18;28.79;49.10
74792;SHT30;63319;46.046;17.802;2023-07-31T16:55:21;28.78;49.16
74792;SHT30;63319;46.046;17.802;2023-07-31T16:58:24;28.74;49.15
74792;SHT30;63319;46.046;17.802;2023-07-31T17:01:27;28.75;49.22
74792;SHT30;63319;46.046;17.802;2023-07-31T17:04:35;28.72;49.21
74792;SHT30;63319;46.046;17.802;2023-07-31T17:07:38;28.72;49.28
74792;SHT30;63319;46.046;17.802;2023-07-31T17:10:41;28.66;49.30
74792;SHT30;63319;46.046;17.802;2023-07-31T17:13:44;28.68;49.31
74792;SHT30;63319;46.046;17.802;2023-07-31T17:16:47;28.66;49.40
74792;SHT30;63319;46.046;17.802;2023-07-31T17:19:50;28.64;49.43
74792;SHT30;63319;46.046;17.802;2023-07-31T17:22:53;28.62;49.49
74792;SHT30;63319;46.046;17.802;2023-07-31T17:25:56;28.61;49.48
74792;SHT30;63319;46.046;17.802;2023-07-31T17:28:59;28.58;49.49
74792;SHT30;63319;46.046;17.802;2023-07-31T17:32:05;28.58;49.57
74792;SHT30;63319;46.046;17.802;2023-07-31T17:35:09;28.56;49.60
74792;SHT30;63319;46.046;17.802;2023-07-31T17:38:12;28.55;49.63
74792;SHT30;63319;46.046;17.802;2023-07-31T17:41:16;28.52;49.72
74792;SHT30;63319;46.046;17.802;2023-07-31T17:44:20;28.52;49.68
74792;SHT30;63319;46.046;17.802;2023-07-31T17:47:23;28.52;49.71
74792;SHT30;63319;46.046;17.802;2023-07-31T17:50:27;28.52;49.69
74792;SHT30;63319;46.046;17.802;2023-07-31T17:53:31;28.48;49.74
74792;SHT30;63319;46.046;17.802;2023-07-31T17:56:35;28.44;49.81
74792;SHT30;63319;46.046;17.802;2023-07-31T17:59:42;28.47;49.83
74792;SHT30;63319;46.046;17.802;2023-07-31T18:02:49;28.45;49.88
74792;SHT30;63319;46.046;17.802;2023-07-31T18:05:52;28.43;49.90
74792;SHT30;63319;46.046;17.802;2023-07-31T18:08:55;28.38;49.94
74792;SHT30;63319;46.046;17.802;2023-07-31T18:11:59;28.38;49.94
74792;SHT30;63319;46.046;17.802;2023-07-31T18:15:03;28.38;49.99
74792;SHT30;63319;46.046;17.802;2023-07-31T18:18:07;28.34;50.10
74792;SHT30;63319;46.046;17.802;2023-07-31T18:21:11;28.34;50.11
74792;SHT30;63319;46.046;17.802;2023-07-31T18:24:14;28.29;50.14
74792;SHT30;63319;46.046;17.802;2023-07-31T18:27:18;28.27;50.18
74792;SHT30;63319;46.046;17.802;2023-07-31T18:30:23;28.28;50.27
74792;SHT30;63319;46.046;17.802;2023-07-31T18:33:27;28.27;50.32
74792;SHT30;63319;46.046;17.802;2023-07-31T18:36:30;28.24;50.33
74792;SHT30;63319;46.046;17.802;2023-07-31T18:39:36;28.28;50.35
74792;SHT30;63319;46.046;17.802;2023-07-31T18:42:40;28.24;50.40
74792;SHT30;63319;46.046;17.802;2023-07-31T18:45:43;28.24;50.37
74792;SHT30;63319;46.046;17.802;2023-07-31T18:48:47;28.24;50.41
74792;SHT30;63319;46.046;17.802;2023-07-31T18:51:51;28.21;50.41
74792;SHT30;63319;46.046;17.802;2023-07-31T18:54:55;28.21;50.45
74792;SHT30;63319;46.046;17.802;2023-07-31T18:57:58;28.21;50.45
74792;SHT30;63319;46.046;17.802;2023-07-31T19:01:01;28.20;50.53
74792;SHT30;63319;46.046;17.802;2023-07-31T19:04:05;28.18;50.44
74792;SHT30;63319;46.046;17.802;2023-07-31T19:07:09;28.18;50.57
74792;SHT30;63319;46.046;17.802;2023-07-31T19:10:13;28.17;50.50
74792;SHT30;63319;46.046;17.802;2023-07-31T19:13:18;28.16;50.52
74792;SHT30;63319;46.046;17.802;2023-07-31T19:16:22;28.18;50.61